MMOX/OAX METAR and TAF weather

Enter ICAO airport designator
Station Type Date Time Source
MMOX METAR 2019/06/26 15:45 UTC NOAA

MMOX 261545Z 19002KT 7SM FEW020 FEW080 BKN200 23/14 A3025 RMK 8/132 HZY


Station Type Date Time Source
MMOX Decoded METAR 2019/06/26 15:45 UTC NOAA

Oaxaca / Xoxocotlan, Mexico (MMOX) 16-58N 096-44W
Jun 26, 2019 - 11:45 AM EDT / 2019.06.26 1545 UTC
Wind: from the S (190 degrees) at 2 MPH (2 KT):0
Visibility: 7 mile(s):0
Sky conditions: mostly cloudy
Temperature: 73 F (23 C)
Dew Point: 57 F (14 C)
Relative Humidity: 56%
Pressure (altimeter): 30.25 in. Hg (1024 hPa)
ob: MMOX 261545Z 19002KT 7SM FEW020 FEW080 BKN200 23/14 A3025 RMK 8/132 HZY
cycle: 16

Station Type Date Time Source
MMOX TAF 2019/06/26 06:51 UTC NOAA

TAF MMOX 260447Z 2606/2706 00000KT 6SM HZ SCT020 SCT100
TEMPO 2606/2610 6SM -RA BKN020CB
FM261800 23010KT P6SM SCT025 BKN200
TEMPO 2622/2702 6SM TSRA BKN020CB

Example: see airport list